Time;durP1;ratioP1;P1;durP2;ratioP2;P2;SDS_P1;SDS_P2;PMS_P1;PMS_P2;Temp;Humidity;BMP_temperature;BMP_pressure;BME280_temperature;BME280_humidity;BME280_pressure;Samples;Min_cycle;Max_cycle;Signal;HPM_P1;HPM_P2
2022/11/11 00:01:10;;;;;;;11.73;7.78;;;;;;;2.87;100.00;98039.56;5038954;28;20091;-64
2022/11/11 00:03:35;;;;;;;12.65;7.65;;;;;;;2.90;100.00;98037.38;5037934;28;20498;-63
2022/11/11 00:06:03;;;;;;;10.02;7.45;;;;;;;2.99;100.00;98043.81;5037542;28;20048;-65
2022/11/11 00:08:29;;;;;;;12.75;8.18;;;;;;;3.02;100.00;98040.53;5036446;28;20107;-65
2022/11/11 00:11:19;;;;;;;15.63;7.65;;;;;;;2.87;100.00;98030.66;5038317;28;20041;-64
2022/11/11 00:13:45;;;;;;;11.32;7.05;;;;;;;2.75;100.00;98028.31;5037748;28;20033;-65
2022/11/11 00:16:16;;;;;;;13.18;8.57;;;;;;;2.63;100.00;98030.59;5032258;28;20094;-64
2022/11/11 00:27:09;;;;;;;9.13;6.55;;;;;;;2.43;100.00;98031.50;5042211;28;20043;-64
2022/11/11 00:29:34;;;;;;;11.73;7.45;;;;;;;2.46;100.00;98030.97;5045461;28;20041;-65
2022/11/11 00:35:52;;;;;;;13.93;8.27;;;;;;;2.49;100.00;98022.28;5020277;28;20408;-66
2022/11/11 00:37:31;;;;;;;12.02;8.23;;;;;;;2.35;100.00;98022.09;5035322;28;20033;-65
2022/11/11 00:39:56;;;;;;;14.73;8.30;;;;;;;2.41;100.00;98025.59;5019872;28;20033;-65
2022/11/11 00:42:22;;;;;;;13.00;8.50;;;;;;;2.45;100.00;98024.75;5015018;28;20641;-66
2022/11/11 00:44:47;;;;;;;11.40;7.35;;;;;;;2.58;100.00;98026.00;5037903;28;20186;-64
2022/11/11 00:52:40;;;;;;;12.23;7.20;;;;;;;2.51;100.00;98030.13;5036097;28;20087;-65
2022/11/11 00:55:06;;;;;;;10.25;7.20;;;;;;;2.31;100.00;98041.91;5032832;28;20460;-66
2022/11/11 00:57:32;;;;;;;12.25;7.35;;;;;;;2.08;100.00;98038.75;5019044;28;20110;-64
2022/11/11 00:59:57;;;;;;;9.00;7.00;;;;;;;1.87;100.00;98033.47;5020127;28;20033;-65
2022/11/11 01:02:22;;;;;;;13.90;7.28;;;;;;;1.84;100.00;98027.81;5032877;28;20649;-65
2022/11/11 01:04:48;;;;;;;9.00;6.75;;;;;;;1.90;100.00;98029.38;5038284;28;20095;-64
2022/11/11 01:07:13;;;;;;;11.55;7.00;;;;;;;1.83;100.00;98029.69;5014320;28;20063;-65
2022/11/11 01:09:39;;;;;;;12.43;8.40;;;;;;;1.84;100.00;98030.50;5038126;28;20062;-65
2022/11/11 01:12:04;;;;;;;10.57;7.80;;;;;;;1.92;100.00;98028.00;5032947;28;20099;-66
2022/11/11 01:14:30;;;;;;;9.90;6.97;;;;;;;2.01;100.00;98028.25;5037835;28;20565;-65
2022/11/11 01:16:55;;;;;;;15.13;7.85;;;;;;;2.27;100.00;98036.25;5039696;28;20049;-65
2022/11/11 01:19:20;;;;;;;10.77;7.28;;;;;;;2.37;100.00;98038.84;5013425;28;20039;-65
2022/11/11 01:21:46;;;;;;;11.60;7.15;;;;;;;2.45;100.00;98038.28;5037770;28;20033;-63
2022/11/11 01:24:11;;;;;;;11.38;6.20;;;;;;;2.57;100.00;98046.03;5032439;28;20037;-65
2022/11/11 01:26:37;;;;;;;11.65;6.80;;;;;;;2.71;100.00;98034.59;5035685;28;20592;-65
2022/11/11 01:29:02;;;;;;;13.43;6.80;;;;;;;2.84;100.00;98034.72;5036882;28;20401;-65
2022/11/11 01:31:28;;;;;;;11.25;6.68;;;;;;;2.94;100.00;98033.84;5019593;28;20037;-63
2022/11/11 01:33:53;;;;;;;11.70;6.95;;;;;;;2.90;100.00;98023.84;5041436;28;20093;-64
2022/11/11 01:36:22;;;;;;;10.48;6.25;;;;;;;2.96;100.00;98028.94;5035220;28;20123;-64
2022/11/11 01:38:50;;;;;;;8.93;6.20;;;;;;;3.12;100.00;98020.69;5033330;28;20041;-65
2022/11/11 01:41:32;;;;;;;8.77;5.82;;;;;;;3.17;100.00;98013.34;5045533;28;20040;-65
2022/11/11 01:44:09;;;;;;;8.95;6.25;;;;;;;3.22;100.00;98015.16;5049029;28;20131;-66
2022/11/11 01:46:51;;;;;;;12.00;6.15;;;;;;;2.98;100.00;98028.66;5041548;28;20045;-64
2022/11/11 01:49:22;;;;;;;10.63;6.15;;;;;;;2.83;100.00;98030.41;5038055;28;20132;-65
2022/11/11 01:52:10;;;;;;;8.23;6.00;;;;;;;2.66;100.00;98038.13;5041038;28;20040;-65
2022/11/11 01:54:51;;;;;;;13.90;6.28;;;;;;;2.29;100.00;98042.16;5042585;28;20039;-64
2022/11/11 01:57:23;;;;;;;9.70;6.05;;;;;;;2.51;100.00;98032.84;5037410;28;20041;-65
2022/11/11 01:59:59;;;;;;;7.38;5.43;;;;;;;2.59;100.00;98040.34;5022967;28;20041;-65
2022/11/11 02:02:38;;;;;;;9.82;6.00;;;;;;;2.69;100.00;98042.97;5016592;28;20037;-65
2022/11/11 02:07:49;;;;;;;10.10;6.05;;;;;;;2.84;100.00;98047.44;5029892;28;20044;-64
2022/11/11 02:10:22;;;;;;;9.05;5.80;;;;;;;2.78;100.00;98046.69;5035980;28;20098;-65
2022/11/11 02:15:32;;;;;;;8.30;5.15;;;;;;;2.63;100.00;98052.22;5036724;28;20080;-64
2022/11/11 02:17:58;;;;;;;10.95;5.75;;;;;;;2.44;100.00;98055.56;5039428;28;20072;-65
2022/11/11 02:20:27;;;;;;;13.55;6.13;;;;;;;2.27;100.00;98055.97;5037890;28;20041;-65
2022/11/11 02:23:07;;;;;;;9.88;7.20;;;;;;;2.03;100.00;98060.41;5042231;28;20048;-66
2022/11/11 02:25:36;;;;;;;10.40;7.15;;;;;;;1.86;100.00;98049.94;5040933;28;20513;-65
2022/11/11 02:28:04;;;;;;;7.40;4.55;;;;;;;1.82;100.00;98052.41;5042251;28;20064;-65
2022/11/11 02:30:30;;;;;;;9.43;6.15;;;;;;;1.97;100.00;98054.22;5023787;28;20098;-65
2022/11/11 02:32:55;;;;;;;7.90;6.10;;;;;;;2.05;100.00;98063.63;5051430;28;20048;-63
2022/11/11 02:35:30;;;;;;;10.68;6.50;;;;;;;2.18;100.00;98059.50;5058175;28;20059;-64
2022/11/11 02:37:55;;;;;;;9.15;5.40;;;;;;;2.17;100.00;98052.50;5048695;28;20047;-65
2022/11/11 02:40:34;;;;;;;9.75;5.55;;;;;;;2.21;100.00;98064.38;5018348;28;20045;-65
2022/11/11 02:42:59;;;;;;;10.90;5.85;;;;;;;2.27;100.00;98069.47;5042536;28;20170;-65
2022/11/11 02:45:25;;;;;;;10.30;5.47;;;;;;;2.32;100.00;98068.63;5039819;28;20502;-66
2022/11/11 02:47:50;;;;;;;10.10;5.30;;;;;;;2.34;100.00;98073.75;5033944;28;20498;-64
2022/11/11 02:50:16;;;;;;;8.73;5.43;;;;;;;2.37;100.00;98079.41;5036679;28;20064;-63
2022/11/11 02:52:41;;;;;;;8.70;5.80;;;;;;;2.42;100.00;98076.69;5047202;28;20048;-64
2022/11/11 02:55:07;;;;;;;8.23;5.10;;;;;;;2.42;100.00;98086.69;5053045;28;20059;-65
2022/11/11 02:57:32;;;;;;;11.25;5.95;;;;;;;2.38;100.00;98091.88;5054548;28;20048;-64
2022/11/11 02:59:59;;;;;;;8.23;5.18;;;;;;;2.04;100.00;98097.16;5050134;28;20524;-64
2022/11/11 03:02:26;;;;;;;8.75;6.05;;;;;;;1.58;100.00;98095.41;5039883;28;20044;-63
2022/11/11 03:04:56;;;;;;;12.07;6.68;;;;;;;1.42;100.00;98107.31;5024705;28;20443;-63
2022/11/11 03:07:23;;;;;;;9.02;7.10;;;;;;;1.48;100.00;98109.75;5035994;28;20434;-64
2022/11/11 03:09:49;;;;;;;10.07;7.18;;;;;;;1.70;100.00;98104.03;5041353;28;20041;-64
2022/11/11 03:12:14;;;;;;;11.13;6.68;;;;;;;2.00;100.00;98099.63;5036121;28;20604;-64
2022/11/11 03:14:40;;;;;;;11.15;6.47;;;;;;;1.92;100.00;98097.47;5041153;28;20662;-66
2022/11/11 03:19:50;;;;;;;11.77;6.45;;;;;;;2.08;100.00;98109.84;5041319;28;20041;-64
2022/11/11 03:22:15;;;;;;;11.60;6.75;;;;;;;2.22;100.00;98110.06;5036008;28;20051;-63
2022/11/11 03:27:24;;;;;;;11.07;6.43;;;;;;;2.60;100.00;98120.41;4997757;28;20136;-64
2022/11/11 03:29:50;;;;;;;13.70;6.45;;;;;;;2.62;100.00;98119.03;5021473;28;20132;-64
2022/11/11 03:32:15;;;;;;;10.77;6.15;;;;;;;2.65;100.00;98129.28;5023549;28;20455;-64
2022/11/11 03:34:40;;;;;;;8.82;5.70;;;;;;;2.63;100.00;98126.06;5043444;28;20527;-62
2022/11/11 03:39:53;;;;;;;10.18;6.22;;;;;;;2.44;100.00;98130.50;5060050;28;20477;-64
2022/11/11 03:42:18;;;;;;;10.35;6.07;;;;;;;2.55;100.00;98134.75;5035713;28;20051;-65
2022/11/11 03:44:44;;;;;;;8.23;5.47;;;;;;;2.63;100.00;98136.09;5041111;28;20506;-63
2022/11/11 03:47:09;;;;;;;9.65;5.53;;;;;;;2.77;100.00;98138.97;5035203;28;20076;-64
2022/11/11 03:49:34;;;;;;;8.05;5.80;;;;;;;2.84;100.00;98136.75;5040872;28;20461;-64
2022/11/11 03:52:00;;;;;;;9.88;5.65;;;;;;;2.84;100.00;98137.56;5040303;28;20037;-64
2022/11/11 03:54:25;;;;;;;8.90;5.78;;;;;;;2.80;100.00;98144.63;5035225;28;20098;-65
2022/11/11 03:56:51;;;;;;;11.23;6.63;;;;;;;2.78;100.00;98146.00;5040227;28;20041;-65
2022/11/11 03:59:17;;;;;;;11.30;5.65;;;;;;;2.79;100.00;98145.72;5035749;28;20498;-63
2022/11/11 04:18:09;;;;;;;11.40;5.10;;;;;;;3.38;100.00;98156.66;5047279;28;20077;-65
2022/11/11 04:23:19;;;;;;;7.53;5.45;;;;;;;3.65;100.00;98172.41;5034976;28;20051;-65
2022/11/11 04:25:52;;;;;;;9.20;5.55;;;;;;;3.63;100.00;98169.16;5022226;28;20064;-65
2022/11/11 04:31:02;;;;;;;8.18;5.05;;;;;;;3.67;100.00;98161.28;5038967;28;20037;-66
2022/11/11 04:33:27;;;;;;;10.70;4.82;;;;;;;3.67;100.00;98159.38;5036832;28;20041;-64
2022/11/11 04:35:53;;;;;;;11.55;5.10;;;;;;;3.75;100.00;98158.75;5039472;28;20561;-66
2022/11/11 04:41:02;;;;;;;10.77;5.35;;;;;;;3.70;100.00;98141.75;5048591;28;20036;-66
2022/11/11 04:43:31;;;;;;;7.75;5.28;;;;;;;3.47;100.00;98146.81;5045161;28;20084;-66
2022/11/11 04:46:00;;;;;;;7.80;5.53;;;;;;;3.19;100.00;98143.81;5039207;28;20404;-65
2022/11/11 04:48:26;;;;;;;12.43;5.47;;;;;;;2.89;100.00;98142.13;5034669;28;20405;-65
2022/11/11 04:50:52;;;;;;;7.93;5.68;;;;;;;2.92;100.00;98144.28;5039873;28;20045;-65
2022/11/11 04:53:18;;;;;;;10.27;6.10;;;;;;;2.97;100.00;98146.13;5031591;28;20575;-65
2022/11/11 04:58:33;;;;;;;12.48;6.50;;;;;;;2.97;100.00;98157.78;5036590;28;20097;-65
2022/11/11 05:00:59;;;;;;;13.57;7.63;;;;;;;2.82;100.00;98166.78;5021032;28;20041;-65
2022/11/11 05:03:24;;;;;;;11.95;7.13;;;;;;;2.86;100.00;98161.63;5031032;28;20499;-65
2022/11/11 05:09:00;;;;;;;14.10;7.70;;;;;;;3.12;100.00;98181.22;5043816;28;20410;-65
2022/11/11 05:11:34;;;;;;;11.18;7.38;;;;;;;3.17;100.00;98164.94;5039157;28;20045;-64
2022/11/11 05:22:39;;;;;;;12.60;7.18;;;;;;;3.61;100.00;98152.38;5046533;28;20619;-67
2022/11/11 05:25:24;;;;;;;13.80;7.50;;;;;;;3.81;100.00;98137.81;5052489;28;20049;-65
2022/11/11 05:27:53;;;;;;;10.82;7.90;;;;;;;3.87;100.00;98142.13;5050344;28;20102;-65
2022/11/11 05:30:20;;;;;;;12.23;7.45;;;;;;;3.95;100.00;98146.09;5040800;28;20049;-63
2022/11/11 05:32:46;;;;;;;18.10;8.70;;;;;;;3.85;100.00;98146.19;5043043;28;20044;-65
2022/11/11 05:35:12;;;;;;;13.55;7.95;;;;;;;3.80;100.00;98161.41;5035842;28;20025;-65
2022/11/11 05:37:38;;;;;;;14.27;7.88;;;;;;;3.81;100.00;98159.50;5042050;28;20041;-66
2022/11/11 05:40:03;;;;;;;15.93;8.43;;;;;;;3.78;100.00;98166.31;5038743;28;20052;-65
2022/11/11 05:42:29;;;;;;;15.05;8.57;;;;;;;3.95;100.00;98184.03;5043079;28;20057;-64
2022/11/11 05:44:54;;;;;;;14.70;8.95;;;;;;;4.16;100.00;98190.03;5024677;28;20045;-65
2022/11/11 05:47:20;;;;;;;15.40;9.40;;;;;;;4.11;100.00;98203.69;5036833;28;20131;-65
2022/11/11 05:49:45;;;;;;;14.57;8.32;;;;;;;4.08;100.00;98194.19;5044045;28;20036;-65
2022/11/11 05:52:12;;;;;;;16.17;9.68;;;;;;;4.08;100.00;98202.34;5037986;28;20044;-65
2022/11/11 05:54:39;;;;;;;20.73;10.50;;;;;;;4.06;100.00;98207.25;5053696;28;20112;-65
2022/11/11 05:57:04;;;;;;;27.35;11.40;;;;;;;4.10;100.00;98212.91;5026457;28;20072;-65
2022/11/11 05:59:30;;;;;;;17.35;11.10;;;;;;;4.11;100.00;98212.63;5055463;28;20045;-64
2022/11/11 06:01:55;;;;;;;19.30;11.65;;;;;;;4.14;100.00;98209.34;5043932;28;20044;-65
2022/11/11 06:04:21;;;;;;;15.05;10.63;;;;;;;4.20;100.00;98215.50;5038157;28;20045;-65
2022/11/11 06:06:47;;;;;;;19.15;11.90;;;;;;;4.34;100.00;98212.91;5042065;28;20498;-64
2022/11/11 06:09:12;;;;;;;19.77;11.40;;;;;;;4.52;100.00;98214.88;5038996;28;20041;-65
2022/11/11 06:11:38;;;;;;;20.45;10.35;;;;;;;4.78;100.00;98225.41;5049024;28;20044;-65
2022/11/11 06:14:04;;;;;;;19.42;10.30;;;;;;;4.81;100.00;98224.00;5049337;28;20041;-65
2022/11/11 06:16:30;;;;;;;17.48;10.75;;;;;;;4.80;100.00;98231.34;5041387;28;20068;-64
2022/11/11 06:18:55;;;;;;;17.23;10.70;;;;;;;4.56;100.00;98229.47;5023687;28;20493;-64
2022/11/11 06:21:21;;;;;;;18.98;11.20;;;;;;;4.55;100.00;98235.97;5021284;28;20261;-64
2022/11/11 06:23:46;;;;;;;19.75;10.95;;;;;;;4.64;100.00;98246.22;5046889;28;20100;-66
2022/11/11 06:26:13;;;;;;;20.75;11.73;;;;;;;4.56;100.00;98253.09;5037379;28;20043;-64
2022/11/11 06:28:52;;;;;;;17.27;11.25;;;;;;;4.44;100.00;98252.69;5041780;28;20051;-63
2022/11/11 06:31:20;;;;;;;17.52;10.88;;;;;;;4.51;100.00;98251.22;5035279;28;20132;-63
2022/11/11 06:33:46;;;;;;;21.73;12.02;;;;;;;4.46;100.00;98247.78;5042445;28;20040;-63
2022/11/11 06:36:13;;;;;;;26.02;13.10;;;;;;;4.40;100.00;98247.81;5034433;28;20054;-63
2022/11/11 06:38:39;;;;;;;24.00;12.38;;;;;;;4.40;100.00;98253.25;5042024;28;20045;-63
2022/11/11 06:41:05;;;;;;;25.00;13.20;;;;;;;4.46;100.00;98253.19;5036840;28;20037;-63
2022/11/11 06:43:31;;;;;;;25.75;13.25;;;;;;;4.50;100.00;98254.22;5024418;28;20132;-62
2022/11/11 06:45:57;;;;;;;23.20;13.07;;;;;;;4.67;100.00;98275.50;5060560;28;20100;-65
2022/11/11 06:48:24;;;;;;;29.13;14.43;;;;;;;4.54;100.00;98271.56;5063426;28;20060;-66
2022/11/11 06:50:50;;;;;;;22.35;12.63;;;;;;;4.45;100.00;98279.53;5044388;28;20132;-65
2022/11/11 06:53:17;;;;;;;25.02;13.18;;;;;;;4.37;100.00;98288.28;5036276;28;20123;-66
2022/11/11 06:55:43;;;;;;;22.92;12.90;;;;;;;4.41;100.00;98292.03;5023472;28;20518;-66
2022/11/11 06:58:18;;;;;;;24.65;13.00;;;;;;;4.49;100.00;98287.91;5036529;28;20072;-65
2022/11/11 07:00:45;;;;;;;20.23;11.85;;;;;;;4.42;100.00;98293.66;5042196;28;20040;-64
2022/11/11 07:03:13;;;;;;;23.60;12.02;;;;;;;4.40;100.00;98304.00;5035034;28;20421;-66
2022/11/11 07:05:39;;;;;;;25.38;13.43;;;;;;;4.43;100.00;98303.44;5040085;28;20064;-65
2022/11/11 07:08:09;;;;;;;23.73;12.88;;;;;;;4.28;100.00;98304.38;5020391;28;20041;-65
2022/11/11 07:10:37;;;;;;;26.98;13.00;;;;;;;4.24;100.00;98303.34;5041194;28;20089;-65
2022/11/11 07:13:03;;;;;;;29.83;14.60;;;;;;;4.32;100.00;98313.56;5039848;28;20429;-65
2022/11/11 07:15:29;;;;;;;32.42;17.27;;;;;;;4.44;100.00;98315.09;5038583;28;20092;-65
2022/11/11 07:17:54;;;;;;;27.38;15.38;;;;;;;4.48;100.00;98316.91;5035222;28;20064;-66
2022/11/11 07:20:20;;;;;;;24.08;12.85;;;;;;;4.67;100.00;98314.28;5036121;28;20448;-65
2022/11/11 07:22:46;;;;;;;22.02;13.88;;;;;;;4.74;100.00;98313.97;5041779;28;20550;-65
2022/11/11 07:25:11;;;;;;;21.85;12.43;;;;;;;5.06;100.00;98324.16;5032368;28;20045;-65
2022/11/11 07:27:38;;;;;;;25.80;13.00;;;;;;;5.21;100.00;98331.31;5040151;28;20037;-65
2022/11/11 07:30:05;;;;;;;20.35;11.95;;;;;;;5.38;100.00;98324.56;5037093;28;20511;-65
2022/11/11 07:32:31;;;;;;;23.33;12.25;;;;;;;5.53;100.00;98327.09;5043439;28;20347;-65
2022/11/11 07:34:57;;;;;;;22.42;11.57;;;;;;;5.60;100.00;98319.38;5041994;28;20512;-66
2022/11/11 07:37:22;;;;;;;16.35;10.95;;;;;;;5.74;100.00;98319.41;5016901;28;20048;-64
2022/11/11 07:39:48;;;;;;;23.02;11.45;;;;;;;5.87;100.00;98318.69;5041225;28;20102;-65
2022/11/11 07:42:14;;;;;;;19.40;10.73;;;;;;;5.94;100.00;98310.97;5035073;28;20429;-65
2022/11/11 07:44:40;;;;;;;21.90;11.18;;;;;;;5.75;100.00;98308.25;5041736;28;20131;-65
2022/11/11 07:47:05;;;;;;;18.35;11.00;;;;;;;5.87;100.00;98318.69;5014838;28;20052;-66
2022/11/11 07:49:31;;;;;;;22.23;12.75;;;;;;;6.05;100.00;98321.69;5040856;28;20391;-65
2022/11/11 07:51:56;;;;;;;20.23;11.82;;;;;;;6.18;100.00;98325.56;5041722;28;20040;-65
2022/11/11 07:54:22;;;;;;;17.90;10.07;;;;;;;6.35;100.00;98325.00;5036245;28;20356;-65
2022/11/11 07:56:47;;;;;;;20.35;9.90;;;;;;;6.41;100.00;98329.25;5043208;28;20131;-65
2022/11/11 07:59:13;;;;;;;23.48;10.48;;;;;;;6.57;100.00;98332.50;5038488;28;20099;-65
2022/11/11 08:01:38;;;;;;;16.83;10.48;;;;;;;6.22;100.00;98329.31;5044449;28;20194;-65
2022/11/11 08:04:04;;;;;;;25.25;15.63;;;;;;;5.68;100.00;98329.56;5040537;28;20559;-66
2022/11/11 08:06:29;;;;;;;28.58;13.43;;;;;;;5.70;100.00;98324.63;5039363;28;20132;-65
2022/11/11 08:08:55;;;;;;;27.15;13.68;;;;;;;5.32;100.00;98323.81;5051685;28;20044;-65
2022/11/11 08:13:39;;;;;;;27.73;16.40;;;;;;;5.27;100.00;98324.69;5038507;28;20037;-65
2022/11/11 08:14:06;;;;;;;24.77;14.27;;;;;;;5.15;100.00;98319.69;5030230;28;20121;-65
2022/11/11 08:16:32;;;;;;;46.70;25.52;;;;;;;5.23;100.00;98320.16;5039718;28;20482;-64
2022/11/11 08:18:57;;;;;;;32.53;16.10;;;;;;;5.21;100.00;98323.16;5040226;28;20098;-64
2022/11/11 08:21:23;;;;;;;59.28;37.60;;;;;;;5.25;100.00;98324.19;5015946;28;21082;-65
2022/11/11 08:23:50;;;;;;;43.55;23.88;;;;;;;5.36;100.00;98322.94;5039771;28;20394;-65
2022/11/11 08:26:16;;;;;;;40.03;27.00;;;;;;;5.45;100.00;98328.53;5034136;28;20126;-65
2022/11/11 08:28:42;;;;;;;31.27;17.80;;;;;;;5.63;100.00;98326.13;5036098;28;20072;-65
2022/11/11 08:31:08;;;;;;;28.08;17.10;;;;;;;5.79;100.00;98322.06;5032632;28;20409;-66
2022/11/11 08:33:35;;;;;;;29.95;16.42;;;;;;;5.69;100.00;98335.81;5022703;28;20114;-66
2022/11/11 08:36:01;;;;;;;29.27;16.40;;;;;;;5.81;100.00;98329.94;5038115;28;20502;-66
2022/11/11 08:38:27;;;;;;;29.15;16.25;;;;;;;5.77;100.00;98329.72;5037887;28;20036;-65
2022/11/11 08:40:53;;;;;;;37.95;16.60;;;;;;;5.79;100.00;98330.22;5044462;28;20112;-65
2022/11/11 08:43:18;;;;;;;31.88;16.40;;;;;;;6.03;100.00;98332.06;5038800;28;20049;-65
2022/11/11 08:45:44;;;;;;;32.33;17.17;;;;;;;6.11;100.00;98336.84;5043887;28;20045;-64
2022/11/11 08:48:10;;;;;;;38.78;21.95;;;;;;;6.07;100.00;98330.38;5020706;28;20497;-66
2022/11/11 08:50:39;;;;;;;35.40;22.13;;;;;;;6.03;100.00;98338.31;5026492;28;20362;-66
2022/11/11 08:53:07;;;;;;;35.70;22.25;;;;;;;6.02;100.00;98331.25;5048050;28;20049;-66
2022/11/11 08:55:34;;;;;;;33.20;21.73;;;;;;;6.20;100.00;98334.25;5044270;28;20041;-66
2022/11/11 08:58:01;;;;;;;29.10;16.67;;;;;;;6.41;100.00;98335.50;5044566;28;20053;-66
2022/11/11 09:00:27;;;;;;;29.08;16.80;;;;;;;6.43;100.00;98341.47;5039618;28;20485;-67
2022/11/11 09:02:53;;;;;;;30.95;17.45;;;;;;;6.32;100.00;98340.03;5026773;28;20033;-67
2022/11/11 09:05:19;;;;;;;35.53;19.73;;;;;;;6.36;100.00;98343.75;5042167;28;20718;-67
2022/11/11 09:07:45;;;;;;;35.50;19.30;;;;;;;6.53;100.00;98343.19;5043791;28;20041;-68
2022/11/11 09:10:11;;;;;;;34.55;20.00;;;;;;;6.73;100.00;98344.72;5021531;28;20045;-67
2022/11/11 09:12:36;;;;;;;33.08;18.33;;;;;;;6.97;100.00;98354.63;5047374;28;20109;-68
2022/11/11 09:15:02;;;;;;;35.22;18.98;;;;;;;7.07;100.00;98348.97;5059440;28;20037;-70
2022/11/11 09:17:27;;;;;;;34.38;19.67;;;;;;;7.02;100.00;98346.34;5031834;28;20101;-68
2022/11/11 09:19:53;;;;;;;37.25;19.88;;;;;;;7.11;100.00;98346.44;5044349;28;20444;-67
2022/11/11 09:22:18;;;;;;;37.97;18.42;;;;;;;7.04;100.00;98344.13;5037687;28;20094;-69
2022/11/11 09:24:44;;;;;;;39.20;24.65;;;;;;;6.80;100.00;98350.56;5043781;28;20052;-68
2022/11/11 09:27:10;;;;;;;35.17;19.42;;;;;;;6.64;100.00;98341.09;5037889;28;20049;-69
2022/11/11 09:29:36;;;;;;;40.72;19.98;;;;;;;6.60;100.00;98337.34;5044196;28;20052;-68
2022/11/11 09:32:02;;;;;;;38.75;20.42;;;;;;;6.69;100.00;98341.78;5041419;28;20041;-71
2022/11/11 09:34:27;;;;;;;38.60;19.85;;;;;;;6.85;100.00;98339.59;5041690;28;20045;-68
2022/11/11 09:36:53;;;;;;;42.55;20.23;;;;;;;6.94;100.00;98339.69;5025525;28;20106;-68
2022/11/11 09:39:19;;;;;;;37.75;21.23;;;;;;;7.04;100.00;98338.69;5037881;28;20579;-69
2022/11/11 09:42:02;;;;;;;41.47;22.88;;;;;;;7.05;100.00;98341.09;5043892;28;20037;-68
2022/11/11 09:44:46;;;;;;;41.88;22.40;;;;;;;7.29;100.00;98340.06;5039612;28;20048;-69
2022/11/11 09:47:29;;;;;;;37.53;20.85;;;;;;;7.54;100.00;98338.72;5020075;28;20144;-68
2022/11/11 09:50:00;;;;;;;38.90;20.20;;;;;;;7.64;100.00;98340.44;5047140;28;20047;-69
2022/11/11 09:52:53;;;;;;;43.08;21.08;;;;;;;7.83;100.00;98335.63;5029038;28;20045;-68
2022/11/11 09:55:22;;;;;;;32.45;17.63;;;;;;;8.08;100.00;98336.13;5037721;28;20091;-68
2022/11/11 09:57:57;;;;;;;36.00;18.98;;;;;;;8.12;100.00;98341.75;5042859;28;20402;-69
2022/11/11 10:00:35;;;;;;;29.17;18.10;;;;;;;8.12;100.00;98341.75;5038466;28;20040;-67
2022/11/11 10:03:09;;;;;;;29.95;17.35;;;;;;;8.36;100.00;98336.78;5043489;28;20047;-68
2022/11/11 10:05:59;;;;;;;29.70;17.23;;;;;;;8.24;100.00;98331.88;5041788;28;20041;-67
2022/11/11 10:08:29;;;;;;;28.45;17.20;;;;;;;8.28;100.00;98342.19;5020261;28;20147;-67
2022/11/11 10:10:58;;;;;;;41.58;20.75;;;;;;;7.68;100.00;98337.88;5049294;28;20071;-69
2022/11/11 10:13:32;;;;;;;37.28;22.00;;;;;;;7.44;100.00;98328.84;5048943;28;20590;-69
2022/11/11 10:16:37;;;;;;;39.78;22.38;;;;;;;7.58;100.00;98320.66;5055230;28;20130;-68
2022/11/11 10:19:31;;;;;;;36.03;20.58;;;;;;;7.82;100.00;98319.56;5024406;28;20045;-69
2022/11/11 10:22:05;;;;;;;37.90;19.77;;;;;;;7.87;100.00;98324.06;5020982;28;20123;-69
2022/11/11 10:24:42;;;;;;;35.80;19.35;;;;;;;8.12;100.00;98309.84;5008430;28;20402;-68
2022/11/11 10:27:18;;;;;;;37.75;20.13;;;;;;;8.44;100.00;98307.16;5033136;28;20044;-69
2022/11/11 10:29:44;;;;;;;28.13;17.20;;;;;;;8.74;100.00;98309.06;5057207;28;20037;-67
2022/11/11 10:32:18;;;;;;;33.35;18.42;;;;;;;8.91;100.00;98302.88;5045598;28;20083;-68
2022/11/11 10:34:44;;;;;;;33.60;18.02;;;;;;;9.09;100.00;98298.28;5047470;28;20123;-67
2022/11/11 10:37:26;;;;;;;29.40;15.38;;;;;;;9.21;100.00;98286.69;5019014;28;20130;-68
2022/11/11 10:40:02;;;;;;;32.05;16.45;;;;;;;9.32;100.00;98295.41;5025486;28;20037;-67
2022/11/11 10:42:28;;;;;;;25.23;15.20;;;;;;;9.46;100.00;98289.81;5020668;28;20045;-67
2022/11/11 10:44:59;;;;;;;26.40;15.00;;;;;;;9.56;100.00;98282.09;5041930;28;20486;-68
2022/11/11 10:47:44;;;;;;;35.72;16.58;;;;;;;9.51;100.00;98286.91;5035247;28;20670;-68
2022/11/11 10:50:22;;;;;;;30.95;17.15;;;;;;;9.63;100.00;98278.06;5038711;28;20063;-68
2022/11/11 10:52:59;;;;;;;26.10;16.08;;;;;;;9.57;100.00;98274.69;5022411;28;20110;-67
2022/11/11 10:55:31;;;;;;;31.10;16.88;;;;;;;9.85;100.00;98279.81;5034945;28;20176;-67
2022/11/11 10:58:20;;;;;;;32.05;16.98;;;;;;;9.91;100.00;98281.28;5041378;28;20037;-66
2022/11/11 11:00:49;;;;;;;27.27;16.75;;;;;;;9.84;100.00;98273.53;5040759;28;20048;-67
2022/11/11 11:03:26;;;;;;;27.75;15.82;;;;;;;9.81;100.00;98282.41;5036882;28;20044;-68
2022/11/11 11:05:55;;;;;;;36.30;19.27;;;;;;;9.37;100.00;98270.66;5019874;28;20094;-68
2022/11/11 11:08:25;;;;;;;33.83;19.27;;;;;;;8.99;100.00;98261.09;5018009;28;20413;-67
2022/11/11 11:10:58;;;;;;;;;;;;;;;8.92;100.00;98262.69;5039011;28;20037;-69
2022/11/11 11:13:38;;;;;;;33.83;16.52;;;;;;;9.27;100.00;98260.00;5033497;28;20596;-67
2022/11/11 11:16:11;;;;;;;31.55;17.88;;;;;;;9.57;100.00;98263.75;5035958;28;20135;-68
2022/11/11 11:18:37;;;;;;;26.15;16.05;;;;;;;9.43;100.00;98263.88;5041069;28;20043;-66
2022/11/11 11:21:07;;;;;;;29.38;16.92;;;;;;;9.70;100.00;98270.16;5039215;28;20036;-68
2022/11/11 11:23:41;;;;;;;29.77;16.52;;;;;;;9.89;100.00;98264.38;5036189;28;20056;-67
2022/11/11 11:26:09;;;;;;;28.45;16.13;;;;;;;10.16;100.00;98263.19;5034071;28;20521;-67
2022/11/11 11:28:55;;;;;;;27.92;17.17;;;;;;;10.15;100.00;98278.00;5041519;28;20382;-67
2022/11/11 11:31:38;;;;;;;29.95;16.92;;;;;;;10.12;100.00;98265.78;5036739;28;20047;-67
2022/11/11 11:34:04;;;;;;;28.55;16.30;;;;;;;10.13;100.00;98266.59;5028032;28;20371;-70
2022/11/11 11:36:30;;;;;;;34.78;16.33;;;;;;;10.21;100.00;98263.03;5042832;28;20037;-67
2022/11/11 11:38:55;;;;;;;32.25;17.42;;;;;;;10.28;100.00;98268.81;5022705;28;20033;-67
2022/11/11 11:41:40;;;;;;;31.63;17.13;;;;;;;10.28;100.00;98270.72;5036111;28;20508;-67
2022/11/11 11:44:25;;;;;;;32.47;17.75;;;;;;;10.29;100.00;98267.66;5035967;28;20048;-68
2022/11/11 11:46:54;;;;;;;27.15;17.17;;;;;;;10.31;100.00;98264.63;5039642;28;20052;-67
2022/11/11 11:49:29;;;;;;;35.10;18.27;;;;;;;10.25;100.00;98263.19;5035993;28;20041;-68
2022/11/11 11:51:59;;;;;;;31.90;16.95;;;;;;;10.43;100.00;98264.75;5022678;28;20040;-67
2022/11/11 11:54:40;;;;;;;30.52;17.95;;;;;;;10.35;100.00;98262.84;5018025;28;20131;-68
2022/11/11 11:57:21;;;;;;;29.73;17.38;;;;;;;10.40;100.00;98259.13;5038291;28;20071;-68
2022/11/11 12:00:04;;;;;;;28.98;16.05;;;;;;;10.50;100.00;98254.09;5060266;28;20032;-67
2022/11/11 12:02:59;;;;;;;30.77;17.25;;;;;;;10.60;100.00;98252.13;5048057;28;20060;-68
2022/11/11 12:05:42;;;;;;;28.02;16.45;;;;;;;10.62;100.00;98250.66;5037733;28;20329;-68
2022/11/11 12:08:21;;;;;;;31.40;17.33;;;;;;;10.75;100.00;98253.50;5032904;28;20045;-68
2022/11/11 12:10:52;;;;;;;;;;;;;;;10.60;100.00;98257.63;5040357;28;20052;-66
2022/11/11 12:13:50;;;;;;;32.72;18.08;;;;;;;10.51;100.00;98252.16;5033473;28;19913;-66
2022/11/11 12:16:37;;;;;;;29.20;17.58;;;;;;;10.36;100.00;98249.97;5034623;28;20044;-67
2022/11/11 12:19:31;;;;;;;28.60;17.33;;;;;;;10.38;100.00;98244.97;5037612;28;20048;-68
2022/11/11 12:22:22;;;;;;;29.85;16.90;;;;;;;10.40;100.00;98245.44;5039609;28;20045;-66
2022/11/11 12:24:56;;;;;;;29.27;18.10;;;;;;;10.39;100.00;98249.31;5039707;28;20072;-67
2022/11/11 12:27:24;;;;;;;32.90;17.13;;;;;;;10.55;100.00;98253.09;5030078;28;20041;-66
2022/11/11 12:30:27;;;;;;;44.20;18.40;;;;;;;10.68;100.00;98256.78;5022427;28;20049;-66
2022/11/11 12:33:11;;;;;;;31.67;17.55;;;;;;;10.71;100.00;98247.88;5009513;28;20047;-66
2022/11/11 12:35:55;;;;;;;29.10;17.88;;;;;;;10.64;100.00;98242.94;5039331;28;20642;-67
2022/11/11 12:38:39;;;;;;;31.13;18.27;;;;;;;10.60;100.00;98249.41;5026239;28;20052;-67
2022/11/11 12:41:10;;;;;;;32.13;16.70;;;;;;;10.58;100.00;98246.19;5035190;28;20065;-68
2022/11/11 12:43:57;;;;;;;32.25;17.52;;;;;;;10.58;100.00;98249.72;5039305;28;20400;-67